createdAt,value
2018-03-24T00:00:35.707Z,63.70
2018-03-24T00:03:03.240Z,63.70
2018-03-24T00:05:30.859Z,63.80
2018-03-24T00:07:59.159Z,63.30
2018-03-24T00:10:26.796Z,63.20
2018-03-24T00:12:54.401Z,63.20
2018-03-24T00:15:22.682Z,62.50
2018-03-24T00:17:50.931Z,62.70
2018-03-24T00:20:18.945Z,62.70
2018-03-24T00:22:48.133Z,62.80
2018-03-24T00:25:15.658Z,62.80
2018-03-24T00:27:43.224Z,62.40
2018-03-24T00:30:11.694Z,62.50
2018-03-24T00:32:39.949Z,62.80
2018-03-24T00:35:07.473Z,62.80
2018-03-24T00:37:34.967Z,62.60
2018-03-24T00:40:02.488Z,62.70
2018-03-24T00:42:30.786Z,62.40
2018-03-24T00:44:59.134Z,62.10
2018-03-24T00:47:26.836Z,62.10
2018-03-24T00:49:54.428Z,61.60
2018-03-24T00:52:21.953Z,61.40
2018-03-24T00:54:49.477Z,61.70
2018-03-24T00:57:17.008Z,62.10
2018-03-24T00:59:44.622Z,61.90
2018-03-24T01:02:12.997Z,61.80
2018-03-24T01:04:41.256Z,61.60
2018-03-24T01:07:08.908Z,61.60
2018-03-24T01:09:36.459Z,61.60
2018-03-24T01:12:04.072Z,61.60
2018-03-24T01:14:31.645Z,61.60
2018-03-24T01:16:59.146Z,61.40
2018-03-24T01:19:27.407Z,61.20
2018-03-24T01:21:54.915Z,61.10
2018-03-24T01:24:22.416Z,61.20
2018-03-24T01:26:49.971Z,61.10
2018-03-24T01:29:17.497Z,61.30
2018-03-24T01:31:45.096Z,61.50
2018-03-24T01:34:12.702Z,61.40
2018-03-24T01:36:40.195Z,61.50
2018-03-24T01:39:07.751Z,61.40
2018-03-24T01:41:35.239Z,61.40
2018-03-24T01:44:03.765Z,61.20
2018-03-24T01:46:32.096Z,61.00
2018-03-24T01:48:59.594Z,61.00
2018-03-24T01:51:27.137Z,61.00
2018-03-24T01:53:54.830Z,61.20
2018-03-24T01:56:22.362Z,61.10
2018-03-24T01:58:50.032Z,60.90
2018-03-24T02:01:17.581Z,61.00
2018-03-24T02:03:45.857Z,61.20
2018-03-24T02:06:13.373Z,61.00
2018-03-24T02:08:40.875Z,61.10
2018-03-24T02:11:08.619Z,61.20
2018-03-24T02:13:36.113Z,61.30
2018-03-24T02:16:03.713Z,61.40
2018-03-24T02:18:31.436Z,61.30
2018-03-24T02:20:59.341Z,61.30
2018-03-24T02:23:26.850Z,61.40
2018-03-24T02:25:55.243Z,61.20
2018-03-24T02:28:22.885Z,61.00
2018-03-24T02:30:50.667Z,61.10
2018-03-24T02:33:18.156Z,61.50
2018-03-24T02:35:45.682Z,61.60
2018-03-24T02:38:13.192Z,61.60
2018-03-24T02:40:40.828Z,61.60
2018-03-24T02:43:08.352Z,61.90
2018-03-24T02:45:36.613Z,61.40
2018-03-24T02:48:04.285Z,61.40
2018-03-24T02:50:31.906Z,61.50
2018-03-24T02:52:59.441Z,61.50
2018-03-24T02:55:26.970Z,61.30
2018-03-24T02:57:54.616Z,61.70
2018-03-24T03:00:22.138Z,61.40
2018-03-24T03:02:49.814Z,61.50
2018-03-24T03:05:17.380Z,61.60
2018-03-24T03:07:45.798Z,61.30
2018-03-24T03:10:13.340Z,61.10
2018-03-24T03:12:40.859Z,61.00
2018-03-24T03:15:09.140Z,61.30
2018-03-24T03:17:37.421Z,61.40
2018-03-24T03:20:05.704Z,61.50
2018-03-24T03:22:34.002Z,61.80
2018-03-24T03:25:01.521Z,61.50
2018-03-24T03:27:29.036Z,61.60
2018-03-24T03:29:57.320Z,62.10
2018-03-24T03:32:26.058Z,62.00
2018-03-24T03:34:53.625Z,62.10
2018-03-24T03:37:21.156Z,62.10
2018-03-24T03:39:48.967Z,62.00
2018-03-24T03:42:16.483Z,62.20
2018-03-24T03:44:44.024Z,62.50
2018-03-24T03:47:11.554Z,62.30
2018-03-24T03:49:39.970Z,63.00
2018-03-24T03:52:07.482Z,62.60
2018-03-24T03:54:35.094Z,62.60
2018-03-24T03:57:03.367Z,62.60
2018-03-24T03:59:30.887Z,62.60
2018-03-24T04:01:58.381Z,62.80
2018-03-24T04:04:25.899Z,62.80
2018-03-24T04:06:54.153Z,63.00
2018-03-24T04:09:21.680Z,63.00
2018-03-24T04:11:49.291Z,63.10
2018-03-24T04:14:16.833Z,63.20
2018-03-24T04:16:44.425Z,63.10
2018-03-24T04:19:12.124Z,63.10
2018-03-24T04:21:40.407Z,63.00
2018-03-24T04:24:08.717Z,63.30
2018-03-24T04:26:36.998Z,63.00
2018-03-24T04:29:04.491Z,63.00
2018-03-24T04:31:31.997Z,63.10
2018-03-24T04:33:59.705Z,63.10
2018-03-24T04:36:27.225Z,63.10
2018-03-24T04:38:54.895Z,63.30
2018-03-24T04:41:22.423Z,63.40
2018-03-24T04:43:50.013Z,63.50
2018-03-24T04:46:18.287Z,63.40
2018-03-24T04:48:46.556Z,63.30
2018-03-24T04:51:14.054Z,63.30
2018-03-24T04:53:42.427Z,63.40
2018-03-24T04:56:10.936Z,63.40
2018-03-24T04:58:39.223Z,63.10
2018-03-24T05:01:07.517Z,62.90
2018-03-24T05:03:35.914Z,63.10
2018-03-24T05:06:04.183Z,63.10
2018-03-24T05:08:31.706Z,63.10
2018-03-24T05:10:59.254Z,63.20
2018-03-24T05:13:26.892Z,63.20
2018-03-24T05:15:54.484Z,63.20
2018-03-24T05:18:22.784Z,63.30
2018-03-24T05:20:50.290Z,63.30
2018-03-24T05:23:17.794Z,63.30
2018-03-24T05:25:45.390Z,63.30
2018-03-24T05:28:13.677Z,63.40
2018-03-24T05:30:41.954Z,63.40
2018-03-24T05:33:10.213Z,62.80
2018-03-24T05:35:37.822Z,63.20
2018-03-24T05:38:06.230Z,63.30
2018-03-24T05:40:33.751Z,63.30
2018-03-24T05:43:01.362Z,63.20
2018-03-24T05:45:29.641Z,63.10
2018-03-24T05:47:57.892Z,63.20
2018-03-24T05:50:25.464Z,63.10
2018-03-24T05:52:52.950Z,62.90
2018-03-24T05:55:20.558Z,62.90
2018-03-24T05:57:48.453Z,62.30
2018-03-24T06:00:15.954Z,62.40
2018-03-24T06:02:43.548Z,62.40
2018-03-24T06:05:11.130Z,62.50
2018-03-24T06:07:38.740Z,62.60
2018-03-24T06:10:06.425Z,62.60
2018-03-24T06:12:34.180Z,62.80
2018-03-24T06:15:02.176Z,62.60
2018-03-24T06:17:29.700Z,62.50
2018-03-24T06:19:57.314Z,62.60
2018-03-24T06:22:25.089Z,62.60
2018-03-24T06:24:52.632Z,62.20
2018-03-24T06:27:20.925Z,62.30
2018-03-24T06:29:48.587Z,62.30
2018-03-24T06:32:17.143Z,61.70
2018-03-24T06:34:44.863Z,62.10
2018-03-24T06:37:15.734Z,61.80
2018-03-24T06:39:43.265Z,61.80
2018-03-24T06:42:11.523Z,61.90
2018-03-24T06:44:39.158Z,61.90
2018-03-24T06:47:07.513Z,61.30
2018-03-24T06:49:35.112Z,61.30
2018-03-24T06:52:03.378Z,61.40
2018-03-24T06:54:30.914Z,61.40
2018-03-24T06:56:58.421Z,61.50
2018-03-24T06:59:26.731Z,60.70
2018-03-24T07:01:55.125Z,60.80
2018-03-24T07:04:23.459Z,60.70
2018-03-24T07:06:50.987Z,60.70
2018-03-24T07:09:19.251Z,60.60
2018-03-24T07:11:47.002Z,60.60
2018-03-24T07:14:14.617Z,60.90
2018-03-24T07:16:43.028Z,60.70
2018-03-24T07:19:10.595Z,60.60
2018-03-24T07:21:38.134Z,60.80
2018-03-24T07:24:06.420Z,60.80
2018-03-24T07:26:33.938Z,60.70
2018-03-24T07:29:01.429Z,60.60
2018-03-24T07:31:28.956Z,60.50
2018-03-24T07:33:57.264Z,60.20
2018-03-24T07:36:24.769Z,60.20
2018-03-24T07:38:52.380Z,60.00
2018-03-24T07:41:20.742Z,59.80
2018-03-24T07:43:48.310Z,59.80
2018-03-24T07:46:15.798Z,59.60
2018-03-24T07:48:43.406Z,59.00
2018-03-24T07:51:10.977Z,58.80
2018-03-24T07:53:38.504Z,58.60
2018-03-24T07:56:06.840Z,58.40
2018-03-24T07:58:34.422Z,58.30
2018-03-24T08:01:01.941Z,58.00
2018-03-24T08:03:30.368Z,57.80
2018-03-24T08:05:57.899Z,57.70
2018-03-24T08:08:28.042Z,57.50
2018-03-24T08:10:56.486Z,57.20
2018-03-24T08:13:23.991Z,57.00
2018-03-24T08:15:52.298Z,56.30
2018-03-24T08:18:20.573Z,56.40
2018-03-24T08:20:48.140Z,56.40
2018-03-24T08:23:15.643Z,56.40
2018-03-24T08:25:43.918Z,56.10
2018-03-24T08:28:12.226Z,56.10
2018-03-24T08:30:39.728Z,56.00
2018-03-24T08:33:07.261Z,55.50
2018-03-24T08:35:35.520Z,55.40
2018-03-24T08:38:03.031Z,55.40
2018-03-24T08:40:30.633Z,55.60
2018-03-24T08:42:58.867Z,55.50
2018-03-24T08:45:27.136Z,55.30
2018-03-24T08:47:54.777Z,55.20
2018-03-24T08:50:22.415Z,54.60
2018-03-24T08:52:50.489Z,54.70
2018-03-24T08:55:18.080Z,54.80
2018-03-24T08:57:45.714Z,54.80
2018-03-24T09:00:14.830Z,54.20
2018-03-24T09:02:43.209Z,53.70
2018-03-24T09:05:10.872Z,54.00
2018-03-24T09:07:38.373Z,53.70
2018-03-24T09:10:06.664Z,53.70
2018-03-24T09:12:34.285Z,53.70
2018-03-24T09:15:02.625Z,53.50
2018-03-24T09:17:30.884Z,53.60
2018-03-24T09:19:58.427Z,53.60
2018-03-24T09:22:25.930Z,53.90
2018-03-24T09:24:53.440Z,53.30
2018-03-24T09:27:21.029Z,53.40
2018-03-24T09:29:48.550Z,53.10
2018-03-24T09:32:16.162Z,53.00
2018-03-24T09:34:43.867Z,53.10
2018-03-24T09:37:11.381Z,52.60
2018-03-24T09:39:39.664Z,52.20
2018-03-24T09:42:07.964Z,51.70
2018-03-24T09:44:36.369Z,51.70
2018-03-24T09:47:03.955Z,51.70
2018-03-24T09:49:31.459Z,51.30
2018-03-24T09:51:58.988Z,51.20
2018-03-24T09:54:26.485Z,51.40
2018-03-24T09:56:54.146Z,51.10
2018-03-24T09:59:21.691Z,50.70
2018-03-24T10:01:49.276Z,50.50
2018-03-24T10:04:16.805Z,50.50
2018-03-24T10:06:44.310Z,50.40
2018-03-24T10:09:11.852Z,50.60
2018-03-24T10:11:39.358Z,50.80
2018-03-24T10:14:07.030Z,51.80
2018-03-24T10:16:34.541Z,51.10
2018-03-24T10:19:02.159Z,51.40
2018-03-24T10:21:50.114Z,49.60
2018-03-24T10:24:24.405Z,48.80
2018-03-24T10:26:51.926Z,48.70
2018-03-24T10:29:19.412Z,49.20
2018-03-24T10:31:46.947Z,49.20
2018-03-24T10:34:15.221Z,49.60
2018-03-24T10:36:42.761Z,49.60
2018-03-24T10:39:10.320Z,49.90
2018-03-24T10:41:37.938Z,49.50
2018-03-24T10:44:06.301Z,48.00
2018-03-24T10:46:33.809Z,47.90
2018-03-24T10:49:02.114Z,47.20
2018-03-24T10:51:30.492Z,47.60
2018-03-24T10:53:58.789Z,46.70
2018-03-24T10:56:26.311Z,46.60
2018-03-24T10:58:53.894Z,46.60
2018-03-24T11:01:23.730Z,46.80
2018-03-24T11:03:52.059Z,46.90
2018-03-24T11:06:19.612Z,47.20
2018-03-24T11:08:47.913Z,46.50
2018-03-24T11:11:15.475Z,46.50
2018-03-24T11:13:42.956Z,46.30
2018-03-24T11:16:10.475Z,46.50
2018-03-24T11:18:37.966Z,46.70
2018-03-24T11:21:05.475Z,46.80
2018-03-24T11:23:33.024Z,47.00
2018-03-24T11:26:01.295Z,46.30
2018-03-24T11:28:29.641Z,46.80
2018-03-24T11:30:57.228Z,46.40
2018-03-24T11:33:24.820Z,46.00
2018-03-24T11:35:53.120Z,45.90
2018-03-24T11:38:20.677Z,45.70
2018-03-24T11:40:48.181Z,45.60
2018-03-24T11:43:15.724Z,45.50
2018-03-24T11:45:43.248Z,44.20
2018-03-24T11:48:10.819Z,43.80
2018-03-24T11:50:38.435Z,44.00
2018-03-24T11:53:06.029Z,44.40
2018-03-24T11:55:34.295Z,45.40
2018-03-24T11:58:02.624Z,44.50
2018-03-24T12:00:30.196Z,44.50
2018-03-24T12:02:57.768Z,45.00
2018-03-24T12:05:25.323Z,44.70
2018-03-24T12:07:53.637Z,44.60
2018-03-24T12:10:21.283Z,44.60
2018-03-24T12:12:49.728Z,44.80
2018-03-24T12:15:17.372Z,44.70
2018-03-24T12:17:44.906Z,45.10
2018-03-24T12:20:12.591Z,44.70
2018-03-24T12:22:40.848Z,45.30
2018-03-24T12:25:08.380Z,45.20
2018-03-24T12:27:35.935Z,44.30
2018-03-24T12:30:03.515Z,43.90
2018-03-24T12:32:31.096Z,44.10
2018-03-24T12:34:58.625Z,44.00
2018-03-24T12:37:26.208Z,43.80
2018-03-24T12:39:54.630Z,43.70
2018-03-24T12:42:22.899Z,44.10
2018-03-24T12:44:50.403Z,44.00
2018-03-24T12:47:17.943Z,43.90
2018-03-24T12:49:45.535Z,43.60
2018-03-24T12:52:13.221Z,43.70
2018-03-24T12:54:40.971Z,43.10
2018-03-24T12:57:08.504Z,42.10
2018-03-24T12:59:36.123Z,41.70
2018-03-24T13:02:03.715Z,41.20
2018-03-24T13:04:31.378Z,40.40
2018-03-24T13:06:58.928Z,39.60
2018-03-24T13:09:26.453Z,40.10
2018-03-24T13:11:54.763Z,39.80
2018-03-24T13:14:22.300Z,39.80
2018-03-24T13:16:49.838Z,39.60
2018-03-24T13:19:17.531Z,39.30
2018-03-24T13:21:45.051Z,39.00
2018-03-24T13:24:13.338Z,39.10
2018-03-24T13:26:41.652Z,38.80
2018-03-24T13:29:09.198Z,38.20
2018-03-24T13:31:37.545Z,38.40
2018-03-24T13:34:05.152Z,38.00
2018-03-24T13:36:32.882Z,38.40
2018-03-24T13:39:00.571Z,38.10
2018-03-24T13:41:28.234Z,38.20
2018-03-24T13:43:55.751Z,37.10
2018-03-24T13:46:23.362Z,37.60
2018-03-24T13:48:50.916Z,36.70
2018-03-24T13:51:18.436Z,35.60
2018-03-24T13:53:45.945Z,34.70
2018-03-24T13:56:14.278Z,35.50
2018-03-24T13:58:42.030Z,35.40
2018-03-24T14:01:09.564Z,35.50
2018-03-24T14:03:37.858Z,34.60
2018-03-24T14:06:05.470Z,34.50
2018-03-24T14:08:33.042Z,34.20
2018-03-24T14:11:00.573Z,33.80
2018-03-24T14:13:28.102Z,33.20
2018-03-24T14:15:55.833Z,33.20
2018-03-24T14:18:23.509Z,34.10
2018-03-24T14:20:52.397Z,34.50
2018-03-24T14:23:20.690Z,35.10
2018-03-24T14:25:48.364Z,35.10
2018-03-24T14:28:15.905Z,35.20
2018-03-24T14:30:43.448Z,35.10
2018-03-24T14:33:10.962Z,34.90
2018-03-24T14:35:39.383Z,34.40
2018-03-24T14:38:06.837Z,33.50
2018-03-24T14:40:35.136Z,34.20
2018-03-24T14:43:03.655Z,34.00
2018-03-24T14:45:31.223Z,33.90
2018-03-24T14:47:58.742Z,34.50
2018-03-24T14:50:26.361Z,34.40
2018-03-24T14:52:53.882Z,34.70
2018-03-24T14:55:21.421Z,35.20
2018-03-24T14:57:49.060Z,35.70
2018-03-24T15:00:17.416Z,35.50
2018-03-24T15:02:45.075Z,35.50
2018-03-24T15:05:12.815Z,36.00
2018-03-24T15:07:40.349Z,36.00
2018-03-24T15:10:07.881Z,36.30
2018-03-24T15:12:35.575Z,36.10
2018-03-24T15:15:03.107Z,36.10
2018-03-24T15:17:30.650Z,35.60
2018-03-24T15:19:58.928Z,35.90
2018-03-24T15:22:26.473Z,35.30
2018-03-24T15:24:54.595Z,35.40
2018-03-24T15:27:22.914Z,36.70
2018-03-24T15:30:02.374Z,36.60
2018-03-24T15:32:41.918Z,36.90
2018-03-24T15:35:21.251Z,36.70
2018-03-24T15:37:49.729Z,37.20
2018-03-24T15:40:17.296Z,37.10
2018-03-24T15:42:44.785Z,37.10
2018-03-24T15:45:13.069Z,37.30
2018-03-24T15:47:41.468Z,37.50
2018-03-24T15:50:09.040Z,37.50
2018-03-24T15:52:36.608Z,37.80
2018-03-24T15:55:04.913Z,38.00
2018-03-24T15:57:32.424Z,38.00
2018-03-24T15:59:59.981Z,38.00
2018-03-24T16:02:27.517Z,37.90
2018-03-24T16:04:55.157Z,38.20
2018-03-24T16:07:22.706Z,38.30
2018-03-24T16:09:50.229Z,38.40
2018-03-24T16:12:17.820Z,38.70
2018-03-24T16:14:45.366Z,38.50
2018-03-24T16:17:12.894Z,38.70
2018-03-24T16:19:40.572Z,38.40
2018-03-24T16:22:08.167Z,38.90
2018-03-24T16:24:36.586Z,47.70
2018-03-24T16:27:04.112Z,47.40
2018-03-24T16:29:32.616Z,49.20
2018-03-24T16:32:00.157Z,49.60
2018-03-24T16:34:27.708Z,45.70
2018-03-24T16:36:55.267Z,42.30
2018-03-24T16:39:22.850Z,37.50
2018-03-24T16:41:51.148Z,38.80
2018-03-24T16:44:18.696Z,38.70
2018-03-24T16:46:46.239Z,38.70
2018-03-24T16:49:13.747Z,37.80
2018-03-24T16:51:41.248Z,36.90
2018-03-24T16:54:08.872Z,36.30
2018-03-24T16:56:37.166Z,36.30
2018-03-24T16:59:04.682Z,36.30
2018-03-24T17:01:32.322Z,35.90
2018-03-24T17:03:59.835Z,35.70
2018-03-24T17:06:27.365Z,32.80
2018-03-24T17:08:55.231Z,33.70
2018-03-24T17:11:22.786Z,34.60
2018-03-24T17:13:51.825Z,36.60
2018-03-24T17:16:19.372Z,36.60
2018-03-24T17:18:47.064Z,37.40
2018-03-24T17:21:14.550Z,38.10
2018-03-24T17:23:42.092Z,38.90
2018-03-24T17:26:09.610Z,39.20
2018-03-24T17:28:37.239Z,39.50
2018-03-24T17:31:04.730Z,40.60
2018-03-24T17:33:32.377Z,40.90
2018-03-24T17:35:59.991Z,41.30
2018-03-24T17:38:27.568Z,41.70
2018-03-24T17:40:55.107Z,42.00
2018-03-24T17:43:22.755Z,42.30
2018-03-24T17:45:51.059Z,42.90
2018-03-24T17:48:18.601Z,42.80
2018-03-24T17:50:46.128Z,43.10
2018-03-24T17:53:13.663Z,43.30
2018-03-24T17:55:42.075Z,43.70
2018-03-24T17:58:10.331Z,44.00
2018-03-24T18:00:38.623Z,44.20
2018-03-24T18:03:07.033Z,44.40
2018-03-24T18:05:34.567Z,44.40
2018-03-24T18:08:02.108Z,44.70
2018-03-24T18:10:29.650Z,44.80
2018-03-24T18:12:57.207Z,45.00
2018-03-24T18:15:25.606Z,45.40
2018-03-24T18:17:53.373Z,45.40
2018-03-24T18:20:21.674Z,45.80
2018-03-24T18:22:49.223Z,45.70
2018-03-24T18:25:17.518Z,46.20
2018-03-24T18:27:46.380Z,46.40
2018-03-24T18:30:13.993Z,46.40
2018-03-24T18:32:42.237Z,46.70
2018-03-24T18:35:10.579Z,47.30
2018-03-24T18:37:38.856Z,47.50
2018-03-24T18:40:07.269Z,47.20
2018-03-24T18:42:34.850Z,47.10
2018-03-24T18:45:02.352Z,47.50
2018-03-24T18:47:29.915Z,47.50
2018-03-24T18:49:57.402Z,47.60
2018-03-24T18:52:24.931Z,47.70
2018-03-24T18:54:52.493Z,47.90
2018-03-24T18:57:20.099Z,48.20
2018-03-24T18:59:47.730Z,48.40
2018-03-24T19:02:15.418Z,48.50
2018-03-24T19:04:42.939Z,48.70
2018-03-24T19:07:11.238Z,49.00
2018-03-24T19:09:38.837Z,49.00
2018-03-24T19:12:06.345Z,49.20
2018-03-24T19:14:33.861Z,49.20
2018-03-24T19:17:02.361Z,49.60
2018-03-24T19:19:29.919Z,49.50
2018-03-24T19:21:58.208Z,49.80
2018-03-24T19:24:26.521Z,50.40
2018-03-24T19:26:54.156Z,49.80
2018-03-24T19:29:21.691Z,50.00
2018-03-24T19:31:49.381Z,50.10
2018-03-24T19:34:16.887Z,50.20
2018-03-24T19:36:44.461Z,50.30
2018-03-24T19:39:11.960Z,50.30
2018-03-24T19:41:39.508Z,50.50
2018-03-24T19:44:07.823Z,50.60
2018-03-24T19:46:35.569Z,50.60
2018-03-24T19:49:03.157Z,50.70
2018-03-24T19:51:30.798Z,50.90
2018-03-24T19:53:58.409Z,50.90
2018-03-24T19:56:25.929Z,51.20
2018-03-24T19:58:53.525Z,51.20
2018-03-24T20:01:22.033Z,51.40
2018-03-24T20:03:50.008Z,51.30
2018-03-24T20:06:19.253Z,51.70
2018-03-24T20:08:46.790Z,51.60
2018-03-24T20:11:14.325Z,51.60
2018-03-24T20:13:42.606Z,51.80
2018-03-24T20:16:10.500Z,51.80
2018-03-24T20:18:38.068Z,52.00
2018-03-24T20:21:06.237Z,52.00
2018-03-24T20:23:33.846Z,52.10
2018-03-24T20:26:01.472Z,52.20
2018-03-24T20:28:28.981Z,52.40
2018-03-24T20:30:56.526Z,52.50
2018-03-24T20:33:24.027Z,52.70
2018-03-24T20:35:51.586Z,52.90
2018-03-24T20:38:19.373Z,53.10
2018-03-24T20:40:46.946Z,53.10
2018-03-24T20:43:14.489Z,53.10
2018-03-24T20:45:42.107Z,53.20
2018-03-24T20:48:09.608Z,53.30
2018-03-24T20:50:37.185Z,53.40
2018-03-24T20:53:04.694Z,53.50
2018-03-24T20:55:32.241Z,53.50
2018-03-24T20:57:59.752Z,53.60
2018-03-24T21:00:27.346Z,53.60
2018-03-24T21:02:54.955Z,53.80
2018-03-24T21:05:22.534Z,53.90
2018-03-24T21:07:50.210Z,54.00
2018-03-24T21:10:17.780Z,54.00
2018-03-24T21:12:45.278Z,54.10
2018-03-24T21:15:12.779Z,54.30
2018-03-24T21:17:41.121Z,60.10
2018-03-24T21:20:08.646Z,60.30
2018-03-24T21:22:36.199Z,58.90
2018-03-24T21:25:04.546Z,49.50
2018-03-24T21:27:32.099Z,49.50
2018-03-24T21:29:59.617Z,50.30
2018-03-24T21:32:27.177Z,51.00
2018-03-24T21:34:54.698Z,51.60
2018-03-24T21:37:22.224Z,52.20
2018-03-24T21:39:50.614Z,53.10
2018-03-24T21:42:19.043Z,53.40
2018-03-24T21:44:46.641Z,53.40
2018-03-24T21:47:14.184Z,53.70
2018-03-24T21:49:41.704Z,53.80
2018-03-24T21:52:09.255Z,53.90
2018-03-24T21:54:36.762Z,54.10
2018-03-24T21:57:04.369Z,54.20
2018-03-24T21:59:31.886Z,54.30
2018-03-24T22:01:59.422Z,54.40
2018-03-24T22:04:26.980Z,54.40
2018-03-24T22:06:54.535Z,54.50
2018-03-24T22:09:22.806Z,55.10
2018-03-24T22:11:51.137Z,54.70
2018-03-24T22:14:18.686Z,54.70
2018-03-24T22:16:46.953Z,54.90
2018-03-24T22:19:14.508Z,54.90
2018-03-24T22:21:42.007Z,54.90
2018-03-24T22:24:09.564Z,54.90
2018-03-24T22:26:37.088Z,55.10
2018-03-24T22:29:04.712Z,55.20
2018-03-24T22:31:32.232Z,55.20
2018-03-24T22:33:59.764Z,55.30
2018-03-24T22:36:28.047Z,55.50
2018-03-24T22:38:55.680Z,55.40
2018-03-24T22:41:23.290Z,55.90
2018-03-24T22:43:50.785Z,55.40
2018-03-24T22:46:19.176Z,55.70
2018-03-24T22:48:47.441Z,55.80
2018-03-24T22:51:14.977Z,55.80
2018-03-24T22:53:42.484Z,55.80
2018-03-24T22:56:10.081Z,55.80
2018-03-24T22:58:37.592Z,55.80
2018-03-24T23:01:05.168Z,55.90
2018-03-24T23:03:32.686Z,55.90
2018-03-24T23:06:00.967Z,56.00
2018-03-24T23:08:29.270Z,56.10
2018-03-24T23:10:56.967Z,56.10
2018-03-24T23:13:24.495Z,56.20
2018-03-24T23:15:52.794Z,56.50
2018-03-24T23:18:21.112Z,56.70
2018-03-24T23:20:48.617Z,56.60
2018-03-24T23:23:16.171Z,56.70
2018-03-24T23:25:43.699Z,56.80
2018-03-24T23:28:12.082Z,56.90
2018-03-24T23:30:40.387Z,57.00
2018-03-24T23:33:07.926Z,57.00
2018-03-24T23:35:35.459Z,57.10
2018-03-24T23:38:03.068Z,57.10
2018-03-24T23:40:30.567Z,57.20
2018-03-24T23:42:58.252Z,57.30
2018-03-24T23:45:25.766Z,57.40
2018-03-24T23:47:53.427Z,57.50
2018-03-24T23:50:21.010Z,57.70
2018-03-24T23:52:48.634Z,57.60
2018-03-24T23:55:16.127Z,57.70
2018-03-24T23:57:43.750Z,57.80
